• Join FlightAware (Why Join?)
  • Login
  • US Flag 
05:51PM EDT


 

Airport Tracker/Info


-or-


 

Live Flight TrackerFlight Track Log ✈ UAL483 ✈ 09-Jul-2013 ✈ KEWR - KLAX

Flight Track Log - Related Links

Times and Time Zones

All times are in EDT time to prevent confusion due to time zone crossing. See the UAL483 flight status page for this flight to view local times or setup timezone preferences in your user account.

Time Position Orientation Groundspeed Altitude Reporting Facility
EDT Latitude Longitude Course Direction KTS MPH feet Rate Location/Type
05:45PM 40.6667 -74.1833 270° West 189 217 1,100  Level New York TRACON
05:46PM 40.6000 -74.2000 191° South 241 277 2,400 2,100 Climbing New York TRACON
05:47PM 40.6167 -74.2833 285° West 265 305 5,300 2,880 Climbing New York TRACON
05:48PM 40.7555 -74.7710 276° West  Level FlightAware Approximate
05:48PM 40.6333 -74.3833 282° West 273 314 8,200  Level New York TRACON
05:49PM 40.7703 -74.9239 303° West  Level FlightAware Approximate
05:49PM 40.6500 -74.4833 282° West 286 329 10,800  Level New York TRACON
05:50PM 40.7833 -75.0738 270° West  Level FlightAware Approximate
05:50PM 40.7167 -74.5833 311° West 340 391 12,400  Level New York TRACON
05:51PM 40.7858 -74.7011 308° West 338 389 15,800 1,920 Climbing New York Center
05:52PM 40.8617 -74.8017 315° West 338 389 17,100 1,380 Climbing New York Center
05:53PM 40.9278 -74.8714 321° Northwest 345 397 18,600 1,380 Climbing New York Center
05:54PM 41.0061 -74.9586 320° Northwest 351 404 20,000 1,740 Climbing New York Center
05:55PM 41.0553 -75.0964 295° West 367 422 22,200 1,680 Climbing New York Center
05:56PM 41.0492 -75.2033 266° West 356 410 23,400 1,320 Climbing New York Center
05:57PM 40.9858 -75.3367 238° Southwest 350 403 24,900 1,380 Climbing New York Center
05:58PM 40.9183 -75.4642 235° Southwest 375 432 26,300 1,260 Climbing New York Center
05:59PM 40.8469 -75.5853 232° Southwest 401 461 27,500 1,320 Climbing New York Center
06:00PM 40.7747 -75.7172 234° Southwest 423 487 28,900 1,260 Climbing New York Center
06:01PM 40.7108 -75.8442 236° Southwest 429 494 30,000 1,080 Climbing New York Center
06:02PM 40.6322 -75.9750 232° Southwest 446 513 31,100 900 Climbing New York Center
06:03PM 40.5597 -76.1089 235° Southwest 452 520 31,900 600 Climbing New York Center
06:04PM 40.4828 -76.2419 233° Southwest 462 532 32,300 660 Climbing New York Center
06:05PM 40.4075 -76.3778 234° Southwest 462 532 33,300 780 Climbing New York Center
06:06PM 40.3361 -76.5192 237° Southwest 467 537 34,000 300 Climbing New York Center
06:07PM 40.3097 -76.6775 258° West 455 524 34,000  Level New York Center
06:08PM 40.2950 -76.8397 263° West 447 514 34,000  Level New York Center
06:09PM 40.2806 -76.9989 263° West 452 520 34,000 60 Level New York Center
06:10PM 40.2656 -77.1636 263° West 452 520 34,200 540 Climbing New York Center
06:11PM 40.2497 -77.3389 263° West 452 520 35,200 660 Climbing New York Center
06:13PM 40.2386 -77.5939 267° West 459 528 36,000 300 Climbing Cleveland Center
06:14PM 40.2300 -77.7547 266° West 459 528 36,000  Level Cleveland Center
06:15PM 40.2228 -77.8828 266° West 459 528 36,000  Level Cleveland Center
06:16PM 40.2167 -78.0761 268° West 459 528 36,000  Level Cleveland Center
06:17PM 40.2203 -78.2367 272° West 453 521 36,000  Level Cleveland Center
06:18PM 40.2233 -78.3969 271° West 448 516 36,000  Level Cleveland Center
06:19PM 40.2264 -78.5572 271° West 448 516 36,000  Level Cleveland Center
06:20PM 40.2292 -78.7203 271° West 448 516 36,000  Level Cleveland Center
06:21PM 40.2297 -78.8833 270° West 448 516 36,000  Level Cleveland Center
06:22PM 40.2339 -79.0439 272° West 448 516 36,000  Level Cleveland Center
06:23PM 40.2339 -79.2069 270° West 448 516 36,000  Level Cleveland Center
06:24PM 40.2397 -79.3511 273° West 440 506 36,000  Level Cleveland Center
06:25PM 40.2394 -79.5114 270° West 440 506 36,000  Level Cleveland Center
06:26PM 40.2408 -79.6719 271° West 440 506 36,000  Level Cleveland Center
06:27PM 40.2397 -79.8350 270° West 440 506 36,000  Level Cleveland Center
06:28PM 40.2408 -80.0147 271° West 440 506 36,000  Level Cleveland Center
06:29PM 40.2519 -80.1722 275° West 445 512 36,000  Level Cleveland Center
06:30PM 40.2919 -80.3244 289° West 445 512 36,000  Level Cleveland Center
06:31PM 40.3403 -80.4658 294° West 440 506 36,000  Level Cleveland Center
06:32PM 40.3714 -80.6103 286° West 428 493 36,000  Level Cleveland Center
06:33PM 40.3483 -80.7683 259° West 411 473 36,000  Level Cleveland Center
06:34PM 40.3167 -80.9233 255° West 427 491 36,000  Level Cleveland Center
06:35PM 40.3078 -81.0839 266° West 437 503 36,000  Level Cleveland Center
06:36PM 40.3003 -81.2850 267° West 438 504 36,000  Level Indianapolis Center
06:37PM 40.2997 -81.4483 270° West 441 507 36,000  Level Indianapolis Center
06:38PM 40.2978 -81.6114 269° West 443 510 36,000  Level Indianapolis Center
06:39PM 40.2947 -81.7750 269° West 444 511 36,000  Level Indianapolis Center
06:40PM 40.2908 -81.9356 268° West 440 506 36,000  Level Indianapolis Center
06:41PM 40.2792 -82.1208 265° West 435 501 36,000  Level Indianapolis Center
06:42PM 40.2425 -82.2811 253° West 453 521 36,000  Level Indianapolis Center
06:43PM 40.2089 -82.4400 255° West 453 521 36,000 -60 Level Indianapolis Center
06:44PM 40.1744 -82.5994 254° West 453 521 35,900 -60 Descending Indianapolis Center
06:45PM 40.1422 -82.7592 255° West 452 520 35,900  Level Indianapolis Center
06:46PM 40.1056 -82.9192 253° West 456 525 35,900  Level Indianapolis Center
06:47PM 40.0672 -83.0783 253° West 456 525 36,000  Climbing Indianapolis Center
06:48PM 40.0175 -83.2639 251° West 464 534 36,000  Level Indianapolis Center
06:49PM 39.9750 -83.4264 251° West 473 544 36,000  Level Indianapolis Center
06:51PM 39.9336 -83.5894 252° West 484 557 36,000  Level Indianapolis Center
06:52PM 39.8919 -83.7514 252° West 475 547 36,000 -60 Level Indianapolis Center
06:53PM 39.8325 -83.9361 247° West 472 543 35,900  Descending Indianapolis Center
06:54PM 39.7808 -84.0944 247° West 473 544 36,000  Climbing Indianapolis Center
06:55PM 39.7631 -84.2575 262° West 454 522 36,000  Level Indianapolis Center
06:56PM 39.7597 -84.4231 269° West 456 525 36,000  Level Indianapolis Center
06:57PM 39.7606 -84.5872 270° West 451 519 36,000  Level Indianapolis Center
06:58PM 39.7600 -84.7531 270° West 454 522 36,000  Level Indianapolis Center
06:59PM 39.7586 -84.9372 269° West 453 521 36,000  Level Indianapolis Center
07:00PM 39.7572 -85.1033 269° West 460 529 36,000  Level Indianapolis Center
07:01PM 39.7550 -85.2689 269° West 461 531 36,000  Level Indianapolis Center
07:02PM 39.7525 -85.4319 269° West 454 522 36,000  Level Indianapolis Center
07:03PM 39.7503 -85.5983 269° West 461 531 36,000  Level Indianapolis Center
07:04PM 39.7481 -85.7672 269° West 467 537 36,000  Level Indianapolis Center
07:05PM 39.7450 -85.9344 269° West 466 536 36,000  Level Indianapolis Center
07:06PM 39.7419 -86.0675 268° West 463 533 36,000  Level Indianapolis Center
07:07PM 39.7361 -86.2975 268° West 470 541 36,000  Level Indianapolis Center
07:08PM 39.7317 -86.4644 268° West 465 535 36,000  Level Indianapolis Center
07:09PM 39.7283 -86.6197 268° West 463 533 36,000  Level Indianapolis Center
07:10PM 39.7233 -86.8178 268° West 460 529 36,000  Level Indianapolis Center
07:11PM 39.7197 -86.9831 268° West 460 529 36,000  Level Indianapolis Center
07:12PM 39.7153 -87.1453 268° West 454 522 36,000  Level Indianapolis Center
07:13PM 39.7103 -87.3078 268° West 453 521 36,000  Level Indianapolis Center
07:14PM 39.7053 -87.4672 268° West 446 513 36,000  Level Indianapolis Center
07:15PM 39.6989 -87.6269 267° West 445 512 36,000  Level Indianapolis Center
07:16PM 39.6939 -87.7869 268° West 445 512 36,000  Level Indianapolis Center
07:17PM 39.6872 -87.9792 267° West 445 512 36,000  Level Indianapolis Center
07:18PM 39.6811 -88.1408 267° West 448 516 36,000  Level Indianapolis Center
07:19PM 39.6750 -88.2486 266° West 447 514 36,000  Level Kansas City Center
07:20PM 39.6700 -88.4111 268° West 448 516 36,000  Level Kansas City Center
07:21PM 39.6639 -88.6047 268° West 448 516 36,000  Level Kansas City Center
07:22PM 39.6547 -88.7681 266° West 450 518 36,000  Level Kansas City Center
07:23PM 39.6464 -88.9317 266° West 451 519 36,000  Level Kansas City Center
07:24PM 39.6392 -89.0922 267° West 449 517 36,000  Level Kansas City Center
07:25PM 39.6317 -89.2542 267° West 450 518 36,000  Level Kansas City Center
07:26PM 39.6242 -89.4106 266° West 449 517 36,000  Level Kansas City Center
07:27PM 39.6147 -89.6050 266° West 450 518 36,000  Level Kansas City Center
07:28PM 39.6072 -89.7647 267° West 448 516 36,000  Level Kansas City Center
07:29PM 39.5992 -89.9236 266° West 447 514 36,000  Level Kansas City Center
07:30PM 39.5903 -90.0842 266° West 448 516 36,000  Level Kansas City Center
07:31PM 39.5822 -90.2444 266° West 449 517 36,000  Level Kansas City Center
07:33PM 39.5706 -90.4356 266° West 447 514 36,000  Level Kansas City Center
07:34PM 39.5619 -90.5939 266° West 445 512 36,000  Level Kansas City Center
07:35PM 39.5525 -90.7506 266° West 442 509 36,000  Level Kansas City Center
07:36PM 39.5439 -90.9081 266° West 441 507 36,000  Level Kansas City Center
07:37PM 39.5344 -91.0647 266° West 440 506 36,000  Level Kansas City Center
07:38PM 39.5217 -91.2553 265° West 443 510 36,000  Level Kansas City Center
07:39PM 39.5097 -91.4192 265° West 448 516 36,000  Level Kansas City Center
07:40PM 39.4981 -91.5744 264° West 447 514 36,000  Level Kansas City Center
07:41PM 39.4861 -91.7344 265° West 443 510 36,000  Level Kansas City Center
07:42PM 39.4761 -91.8906 265° West 441 507 36,000  Level Kansas City Center
07:43PM 39.4639 -92.0469 264° West 440 506 36,000  Level Kansas City Center
07:44PM 39.4503 -92.2317 265° West 435 501 36,000  Level Kansas City Center
07:45PM 39.4378 -92.3875 264° West 436 502 36,000  Level Kansas City Center
07:46PM 39.4278 -92.5417 265° West 434 499 36,000  Level Kansas City Center
07:47PM 39.4156 -92.6950 264° West 433 498 36,000  Level Kansas City Center
07:48PM 39.4039 -92.8494 264° West 433 498 36,000  Level Kansas City Center
07:49PM 39.3883 -93.0347 264° West 433 498 36,000  Level Kansas City Center
07:50PM 39.3753 -93.1894 264° West 435 501 36,000  Level Kansas City Center
07:51PM 39.3633 -93.3442 264° West 436 502 36,000  Level Kansas City Center
07:52PM 39.3506 -93.5022 264° West 441 507 36,000  Level Kansas City Center
07:53PM 39.3369 -93.6572 264° West 440 506 36,000  Level Kansas City Center
07:54PM 39.3233 -93.8222 264° West 436 502 36,000  Level Kansas City Center
07:55PM 39.3075 -93.9958 263° West 436 502 36,000  Level Kansas City Center
07:56PM 39.2942 -94.1447 263° West 436 502 36,000  Level Kansas City Center
07:57PM 39.2625 -94.3147 257° West 437 503 36,000  Level Kansas City Center
07:58PM 39.2189 -94.4561 248° West 441 507 36,000  Level Kansas City Center
07:59PM 39.1689 -94.6206 249° West 442 509 36,000  Level Kansas City Center
08:00PM 39.1261 -94.7653 249° West 449 517 36,000  Level Kansas City Center
08:01PM 39.0753 -94.9297 248° West 440 506 36,000  Level Kansas City Center
08:03PM 39.0317 -95.0717 248° West 442 509 36,000  Level Kansas City Center
08:04PM 38.9892 -95.2158 249° West 444 511 36,000  Level Kansas City Center
08:05PM 38.9389 -95.3831 249° West 445 512 36,000  Level Kansas City Center
08:06PM 38.8956 -95.5247 249° West 445 512 36,000  Level Kansas City Center
08:07PM 38.8436 -95.6875 248° West 439 505 36,000  Level Kansas City Center
08:08PM 38.8008 -95.8269 249° West 437 503 36,000  Level Kansas City Center
08:09PM 38.7586 -95.9642 249° West 435 501 36,000  Level Kansas City Center
08:10PM 38.7072 -96.1239 248° West 433 498 36,000  Level Kansas City Center
08:11PM 38.6639 -96.2631 248° West 437 503 36,000  Level Kansas City Center
08:12PM 38.5742 -96.3975 230° Southwest 445 512 36,000  Level Kansas City Center
08:13PM 38.4961 -96.5125 229° Southwest 446 513 36,000  Level Kansas City Center
08:14PM 38.4144 -96.6303 229° Southwest 452 520 36,000  Level Kansas City Center
08:15PM 38.3297 -96.7500 228° Southwest 453 521 36,000  Level Kansas City Center
08:16PM 38.2389 -96.9056 233° Southwest 454 522 36,000 60 Level Kansas City Center
08:17PM 38.1644 -97.0347 234° Southwest 451 519 36,200 540 Climbing Kansas City Center
08:18PM 38.0897 -97.1631 234° Southwest 450 518 37,200 780 Climbing Kansas City Center
08:19PM 38.0306 -97.3011 241° Southwest 442 509 37,900 360 Climbing Kansas City Center
08:20PM 37.9814 -97.4461 247° West 444 511 38,000  Climbing Kansas City Center
08:21PM 37.9375 -97.6178 252° West 445 512 38,000  Level Kansas City Center
08:22PM 37.9000 -97.7664 252° West 445 512 38,000  Level Kansas City Center
08:23PM 37.8608 -97.9186 252° West 442 509 38,000  Level Kansas City Center
08:24PM 37.8222 -98.0650 252° West 441 507 38,000  Level Kansas City Center
08:25PM 37.7886 -98.2083 254° West 443 510 38,000  Level Kansas City Center
08:26PM 37.7508 -98.3567 252° West 444 511 38,000  Level Kansas City Center
08:27PM 37.7133 -98.5039 252° West 440 506 38,000  Level Kansas City Center
08:28PM 37.6667 -98.6811 252° West 442 509 38,000  Level Kansas City Center
08:29PM 37.6281 -98.8261 251° West 436 502 38,000  Level Kansas City Center
08:30PM 37.5875 -98.9697 250° West 435 501 38,000  Level Kansas City Center
08:31PM 37.5528 -99.1183 254° West 440 506 38,000  Level Kansas City Center
08:32PM 37.5106 -99.2622 250° West 438 504 38,000  Level Kansas City Center
08:33PM 37.4711 -99.4094 251° West 441 507 38,000  Level Kansas City Center
08:35PM 37.4294 -99.5758 253° West 437 503 38,000  Level Kansas City Center
08:36PM 37.3911 -99.7164 251° West 440 506 38,000  Level Kansas City Center
08:37PM 37.3461 -99.8806 251° West 442 509 38,000  Level Kansas City Center
08:38PM 37.3086 -100.0222 252° West 445 512 38,000  Level Kansas City Center
08:39PM 37.2614 -100.1903 251° West 452 520 38,000  Level Kansas City Center
08:40PM 37.2225 -100.3350 251° West 455 524 38,000  Level Kansas City Center
08:41PM 37.1825 -100.4761 250° West 450 518 38,000  Level Kansas City Center
08:42PM 37.1367 -100.6397 251° West 445 512 38,000  Level Kansas City Center
08:43PM 37.0975 -100.7775 250° West 440 506 38,000  Level Kansas City Center
08:44PM 37.0528 -100.9381 251° West 436 502 38,000  Level Kansas City Center
08:45PM 37.0392 -101.0806 263° West 431 496 38,000  Level Kansas City Center
08:46PM 37.0408 -101.2250 271° West 432 497 38,000  Level Kansas City Center
08:47PM 37.0403 -101.3933 270° West 431 496 38,000  Level Kansas City Center
08:48PM 37.0378 -101.5378 269° West 433 498 38,000  Level Kansas City Center
08:49PM 37.0353 -101.7092 269° West 437 503 38,000  Level Kansas City Center
08:50PM 37.0314 -101.8569 268° West 440 506 38,000  Level Kansas City Center
08:51PM 37.0289 -102.0047 269° West 444 511 38,000  Level Kansas City Center
08:52PM 37.0275 -102.1253 269° West 436 502 38,000  Level Albuquerque Center
08:53PM 37.0250 -102.2914 269° West 429 494 38,000  Level Albuquerque Center
08:54PM 37.0200 -102.4342 268° West 429 494 38,000  Level Albuquerque Center
08:55PM 37.0167 -102.5894 269° West 418 481 38,000  Level Albuquerque Center
08:56PM 37.0122 -102.7308 268° West 423 487 38,000  Level Albuquerque Center
08:57PM 37.0094 -102.8931 269° West 419 482 38,000  Level Albuquerque Center
08:58PM 37.0053 -103.0342 268° West 422 486 38,000  Level Albuquerque Center
08:59PM 37.0008 -103.1750 268° West 422 486 38,000  Level Albuquerque Center
09:00PM 36.9958 -103.3381 268° West 421 484 38,000  Level Albuquerque Center
09:01PM 36.9906 -103.4794 267° West 422 486 38,000  Level Albuquerque Center
09:02PM 36.9844 -103.6439 267° West 423 487 38,000  Level Albuquerque Center
09:03PM 36.9803 -103.7847 268° West 423 487 38,000  Level Albuquerque Center
09:04PM 36.9750 -103.9250 267° West 421 484 38,000  Level Albuquerque Center
09:05PM 36.9689 -104.0900 267° West 423 487 38,000  Level Albuquerque Center
09:06PM 36.9650 -104.2289 268° West 419 482 38,000  Level Albuquerque Center
09:07PM 36.9589 -104.3689 267° West 419 482 38,000  Level Albuquerque Center
09:08PM 36.9533 -104.4869 267° West 420 483 38,000  Level Denver Center
09:09PM 36.9469 -104.6281 267° West 423 487 38,000  Level Denver Center
09:10PM 36.9414 -104.7683 267° West 422 486 38,000  Level Denver Center
09:11PM 36.9328 -104.9583 267° West 418 481 38,000  Level Denver Center
09:12PM 36.9258 -105.1028 267° West 418 481 38,000  Level Denver Center
09:13PM 36.9183 -105.2553 267° West 421 484 38,000  Level Denver Center
09:14PM 36.9139 -105.3947 268° West 421 484 38,000  Level Denver Center
09:15PM 36.9056 -105.5564 266° West 418 481 38,000  Level Denver Center
09:16PM 36.8983 -105.6969 266° West 421 484 38,000  Level Denver Center
09:17PM 36.8914 -105.8350 266° West 419 482 38,000  Level Denver Center
09:18PM 36.8828 -105.9981 266° West 421 484 38,000  Level Denver Center
09:19PM 36.8744 -106.1375 266° West 421 484 38,000  Level Denver Center
09:20PM 36.8661 -106.2853 266° West 424 488 38,000  Level Denver Center
09:21PM 36.8550 -106.4469 265° West 419 482 38,000  Level Denver Center
09:22PM 36.8481 -106.5881 267° West 424 488 38,000  Level Denver Center
09:23PM 36.8386 -106.7522 266° West 426 490 38,000  Level Denver Center
09:25PM 36.8272 -106.8931 264° West 426 490 38,000  Level Denver Center
09:26PM 36.8150 -107.0814 265° West 427 491 38,000  Level Denver Center
09:27PM 36.8064 -107.2253 266° West 433 498 38,000  Level Denver Center
09:28PM 36.7958 -107.3908 265° West 430 495 38,000  Level Denver Center
09:29PM 36.7883 -107.5336 266° West 430 495 38,000  Level Denver Center
09:30PM 36.7775 -107.6744 265° West 429 494 38,000  Level Denver Center
09:31PM 36.7669 -107.8414 266° West 431 496 38,000 -660 Level Denver Center
09:32PM 36.7494 -107.9836 261° West 434 499 36,700 -1,020 Descending Denver Center
09:33PM 36.7211 -108.1472 258° West 434 499 36,000 -660 Descending Denver Center
09:34PM 36.6947 -108.2897 257° West 440 506 35,300 -900 Descending Denver Center
09:35PM 36.6611 -108.4803 258° West 443 510 34,000 -660 Descending Denver Center
09:36PM 36.6344 -108.6258 257° West 450 518 34,000  Level Denver Center
09:37PM 36.6047 -108.7939 258° West 448 516 34,000  Level Denver Center
09:38PM 36.5781 -108.9347 257° West 441 507 34,000  Level Denver Center
09:39PM 36.5469 -109.1006 257° West 442 509 34,000  Level Denver Center
09:40PM 36.5208 -109.2408 257° West 442 509 34,000  Level Denver Center
09:41PM 36.4939 -109.3847 257° West 449 517 34,000  Level Denver Center
09:42PM 36.4611 -109.5553 257° West 454 522 34,000  Level Denver Center
09:43PM 36.4319 -109.7022 256° West 459 528 34,000  Level Denver Center
09:44PM 36.3989 -109.8728 257° West 456 525 34,000  Level Denver Center
09:45PM 36.3703 -110.0186 256° West 456 525 34,000  Level Denver Center
09:46PM 36.3381 -110.1761 256° West 455 524 34,000  Level Denver Center
09:47PM 36.3094 -110.3272 257° West 452 520 34,000  Level Denver Center
09:48PM 36.2775 -110.4792 255° West 453 521 34,000  Level Denver Center
09:49PM 36.2486 -110.6308 257° West 453 521 34,000  Level Denver Center
09:50PM 36.2189 -110.7817 256° West 452 520 34,000  Level Denver Center
09:51PM 36.1817 -110.9633 256° West 453 521 34,000  Level Denver Center
09:52PM 36.1506 -111.1144 256° West 453 521 34,000  Level Denver Center
09:54PM 36.1200 -111.2661 256° West 454 522 34,000  Level Denver Center
09:55PM 36.0892 -111.4150 256° West 450 518 34,000  Level Denver Center
09:56PM 36.0569 -111.5639 255° West 448 516 34,000  Level Denver Center
09:56PM 36.0372 -111.6550 255° West 449 517 34,000  Level Los Angeles Center
09:57PM 36.0022 -111.8008 254° West 445 512 34,000  Level Los Angeles Center
09:58PM 35.9553 -111.9442 248° West 449 517 34,000  Level Los Angeles Center
09:59PM 35.9008 -112.1056 247° West 453 521 34,000  Level Los Angeles Center
10:00PM 35.8522 -112.2486 247° West 455 524 34,000  Level Los Angeles Center
10:01PM 35.8044 -112.3922 248° West 458 527 34,000  Level Los Angeles Center
10:02PM 35.7569 -112.5358 248° West 457 526 34,000  Level Los Angeles Center
10:03PM 35.7100 -112.6772 248° West 454 522 34,000  Level Los Angeles Center
10:04PM 35.6553 -112.8381 247° West 454 522 34,000  Level Los Angeles Center
10:05PM 35.6092 -112.9753 248° West 450 518 34,000  Level Los Angeles Center
10:06PM 35.5611 -113.1192 248° West 452 520 34,000  Level Los Angeles Center
10:07PM 35.5114 -113.2589 246° West 446 513 34,000  Level Los Angeles Center
10:08PM 35.4614 -113.4072 248° West 456 525 34,000  Level Los Angeles Center
10:09PM 35.4017 -113.5775 247° West 458 527 34,000  Level Los Angeles Center
10:10PM 35.3522 -113.7178 247° West 455 524 34,000  Level Los Angeles Center
10:12PM 35.3022 -113.8589 247° West 456 525 34,000  Level Los Angeles Center
10:13PM 35.2511 -114.0028 247° West 451 519 34,000  Level Los Angeles Center
10:14PM 35.2006 -114.1453 247° West 455 524 34,000  Level Los Angeles Center
10:15PM 35.1525 -114.2878 248° West 451 519 34,000  Level Los Angeles Center
10:16PM 35.1000 -114.4292 246° West 454 522 34,000  Level Los Angeles Center
10:17PM 35.0511 -114.5739 248° West 459 528 34,000  Level Los Angeles Center
10:18PM 34.9897 -114.7461 247° West 460 529 34,000  Level Los Angeles Center
10:19PM 34.9389 -114.8892 247° West 459 528 34,000  Level Los Angeles Center
10:20PM 34.8889 -115.0261 246° West 446 513 34,000  Level Los Angeles Center
10:21PM 34.8453 -115.1403 245° Southwest 457 526 34,000  Level Los Angeles Center
10:22PM 34.7847 -115.3111 247° West 458 527 34,000 -300 Level Los Angeles Center
10:23PM 34.7339 -115.4506 246° West 453 521 33,500 -1,260 Descending Los Angeles Center
10:24PM 34.6814 -115.5958 246° West 457 526 31,500 -2,400 Descending Los Angeles Center
10:25PM 34.6294 -115.7353 246° West 454 522 28,700 -1,920 Descending Los Angeles Center
10:26PM 34.5783 -115.8739 246° West 450 518 27,600 -840 Descending Los Angeles Center
10:27PM 34.5292 -116.0053 246° West 437 503 27,000 -300 Descending Los Angeles Center
10:28PM 34.4792 -116.1361 245° Southwest 429 494 27,000  Level Los Angeles Center
10:29PM 34.4178 -116.2944 245° Southwest 431 496 27,000 -240 Level Los Angeles Center
10:30PM 34.3661 -116.4317 246° West 442 509 26,600 -1,260 Descending Los Angeles Center
10:31PM 34.3172 -116.5628 246° West 435 501 24,500 -2,040 Descending Los Angeles Center
10:32PM 34.2683 -116.6908 245° Southwest 421 484 22,500 -1,920 Descending Los Angeles Center
10:33PM 34.2194 -116.8192 245° Southwest 419 482 20,600 -1,500 Descending Los Angeles Center
10:34PM 34.1708 -116.9411 244° Southwest 406 467 19,500 -840 Descending Los Angeles Center
10:35PM 34.1272 -117.0578 246° West 388 447 18,900 -1,500 Descending Los Angeles Center
10:36PM 34.0689 -117.2006 244° Southwest 404 465 16,400 -2,400 Descending Los Angeles Center
10:37PM 34.0400 -117.3264 255° West 397 457 14,100 -2,100 Descending Los Angeles Center
10:38PM 34.0286 -117.4522 264° West 382 440 12,100 -1,080 Descending Los Angeles Center
10:39PM 34.0178 -117.5639 263° West 345 397 11,900 -780 Descending Los Angeles Center
10:40PM 34.0000 -117.6667 258° West 294 338 10,600 -1,440 Descending Southern California TRACON
10:41PM 34.0000 -117.7667 270° West 291 335 9,100 -1,260 Descending Southern California TRACON
10:42PM 33.9833 -117.8667 259° West 264 304 8,000 -1,080 Descending Southern California TRACON
10:43PM 33.9833 -117.9500 270° West 241 277 6,900 -1,200 Descending Southern California TRACON
10:44PM 33.9667 -118.0333 256° West 238 274 5,600 -1,260 Descending Southern California TRACON
10:45PM 33.9667 -118.1167 270° West 233 268 4,400 -960 Descending Southern California TRACON
10:46PM 33.9500 -118.1833 253° West 194 223 3,700 -720 Descending Southern California TRACON